createdAt,value
2022-12-15T00:01:51.651Z,-0.49
2022-12-15T00:04:39.534Z,-0.48
2022-12-15T00:07:27.794Z,-0.69
2022-12-15T00:10:15.919Z,-0.79
2022-12-15T00:13:03.992Z,-0.75
2022-12-15T00:15:52.180Z,-0.71
2022-12-15T00:18:40.215Z,-0.50
2022-12-15T00:21:28.020Z,-0.25
2022-12-15T00:24:16.071Z,-0.35
2022-12-15T00:27:04.077Z,-0.33
2022-12-15T00:29:52.283Z,-0.45
2022-12-15T00:32:41.694Z,-0.22
2022-12-15T00:35:29.730Z,-0.28
2022-12-15T00:38:17.811Z,-0.41
2022-12-15T00:40:47.331Z,-0.50
2022-12-15T00:43:16.879Z,-0.43
2022-12-15T00:46:05.000Z,-0.44
2022-12-15T00:48:34.527Z,-0.36
2022-12-15T00:51:04.244Z,-0.54
2022-12-15T00:53:52.504Z,-0.49
2022-12-15T00:56:40.624Z,-0.63
2022-12-15T00:59:29.385Z,-0.25
2022-12-15T01:02:18.381Z,-0.17
2022-12-15T01:05:06.670Z,-0.17
2022-12-15T01:07:54.964Z,-0.28
2022-12-15T01:10:43.077Z,-0.08
2022-12-15T01:13:32.648Z,-0.10
2022-12-15T01:16:21.117Z,-0.24
2022-12-15T01:19:09.373Z,-0.18
2022-12-15T01:21:38.955Z,-0.46
2022-12-15T01:24:08.481Z,-0.54
2022-12-15T01:26:38.959Z,-0.43
2022-12-15T01:29:08.454Z,-0.17
2022-12-15T01:31:38.001Z,-0.03
2022-12-15T01:34:07.509Z,-0.25
2022-12-15T01:36:37.004Z,-0.36
2022-12-15T01:39:06.511Z,-0.41
2022-12-15T01:41:36.278Z,-0.22
2022-12-15T01:44:24.488Z,-0.22
2022-12-15T01:46:56.970Z,-0.10
2022-12-15T01:49:30.266Z,-0.18
2022-12-15T01:52:03.253Z,-0.04
2022-12-15T01:54:55.182Z,-0.53
2022-12-15T01:57:29.944Z,-0.12
2022-12-15T02:00:05.783Z,-0.52
2022-12-15T02:02:40.347Z,-0.34
2022-12-15T02:05:11.754Z,-0.25
2022-12-15T02:07:42.865Z,-0.17
2022-12-15T02:10:13.239Z,-0.12
2022-12-15T02:13:26.380Z,-0.34
2022-12-15T02:16:43.360Z,-0.26
2022-12-15T02:20:13.732Z,-0.38
2022-12-15T02:23:59.328Z,-0.46
2022-12-15T02:27:42.862Z,-0.28
2022-12-15T02:30:44.312Z,-0.17
2022-12-15T02:33:30.291Z,-0.28
2022-12-15T02:36:33.861Z,-0.18
2022-12-15T02:39:04.885Z,0.08
2022-12-15T02:41:40.174Z,-0.08
2022-12-15T02:44:23.824Z,-0.15
2022-12-15T02:47:27.510Z,-0.16
2022-12-15T02:50:41.229Z,-0.33
2022-12-15T02:53:51.193Z,-0.30
2022-12-15T02:56:51.438Z,-0.02
2022-12-15T02:59:48.257Z,-0.31
2022-12-15T03:02:18.174Z,-0.03
2022-12-15T03:04:47.953Z,0.07
2022-12-15T03:07:17.461Z,-0.18
2022-12-15T03:09:47.003Z,-0.33
2022-12-15T03:12:16.538Z,-0.20
2022-12-15T03:14:46.069Z,0.08
2022-12-15T03:17:15.654Z,0.03
2022-12-15T03:19:45.448Z,0.20
2022-12-15T03:22:19.140Z,0.11
2022-12-15T03:24:49.161Z,0.00
2022-12-15T03:27:18.740Z,0.10
2022-12-15T03:29:48.271Z,0.16
2022-12-15T03:32:17.826Z,0.14
2022-12-15T03:34:47.351Z,0.21
2022-12-15T03:37:16.815Z,0.06
2022-12-15T03:39:46.371Z,-0.14
2022-12-15T03:42:35.779Z,-0.03
2022-12-15T03:45:06.281Z,-0.31
2022-12-15T03:47:35.880Z,0.02
2022-12-15T03:50:06.138Z,-0.03
2022-12-15T03:52:33.993Z,0.05
2022-12-15T03:55:05.610Z,-0.16
2022-12-15T03:57:34.925Z,0.05
2022-12-15T04:00:07.863Z,-0.48
2022-12-15T04:02:37.647Z,-0.47
2022-12-15T04:05:07.211Z,-0.24
2022-12-15T04:07:36.718Z,-0.18
2022-12-15T04:10:07.022Z,-0.08
2022-12-15T04:12:39.760Z,-0.04
2022-12-15T04:15:11.425Z,-0.23
2022-12-15T04:17:42.254Z,-0.10
2022-12-15T04:20:12.113Z,0.02
2022-12-15T04:22:46.385Z,-0.13
2022-12-15T04:25:40.301Z,-0.11
2022-12-15T04:28:30.757Z,-0.01
2022-12-15T04:31:34.451Z,0.01
2022-12-15T04:34:29.600Z,-0.02
2022-12-15T04:37:17.667Z,-0.03
2022-12-15T04:40:09.699Z,0.19
2022-12-15T04:43:04.267Z,0.06
2022-12-15T04:45:52.928Z,-0.06
2022-12-15T04:48:41.062Z,-0.18
2022-12-15T04:51:29.088Z,-0.07
2022-12-15T04:54:17.228Z,0.06
2022-12-15T04:57:05.149Z,-0.05
2022-12-15T04:59:52.991Z,0.38
2022-12-15T05:02:41.153Z,0.18
2022-12-15T05:05:29.310Z,-0.07
2022-12-15T05:08:18.069Z,-0.18
2022-12-15T05:11:06.220Z,-0.16
2022-12-15T05:13:54.019Z,0.11
2022-12-15T05:16:42.067Z,-0.21
2022-12-15T05:19:30.026Z,-0.16
2022-12-15T05:22:18.190Z,-0.16
2022-12-15T05:25:06.199Z,-0.12
2022-12-15T05:27:53.972Z,-0.20
2022-12-15T05:30:42.137Z,-0.04
2022-12-15T05:33:11.621Z,0.06
2022-12-15T05:35:41.145Z,0.13
2022-12-15T05:38:10.655Z,0.07
2022-12-15T05:40:40.176Z,-0.02
2022-12-15T05:43:09.660Z,0.17
2022-12-15T05:45:39.151Z,0.16
2022-12-15T05:48:09.281Z,0.11
2022-12-15T05:50:38.767Z,0.24
2022-12-15T05:53:08.359Z,-0.10
2022-12-15T05:55:37.835Z,0.20
2022-12-15T05:58:07.390Z,-0.24
2022-12-15T06:00:37.677Z,0.10
2022-12-15T06:03:07.539Z,0.10
2022-12-15T06:05:37.172Z,0.10
2022-12-15T06:08:06.934Z,0.15
2022-12-15T06:10:36.463Z,0.09
2022-12-15T06:13:06.016Z,0.01
2022-12-15T06:15:35.553Z,-0.09
2022-12-15T06:18:05.284Z,0.04
2022-12-15T06:20:34.858Z,-0.03
2022-12-15T06:23:04.449Z,0.01
2022-12-15T06:25:34.000Z,0.12
2022-12-15T06:28:03.683Z,-0.02
2022-12-15T06:30:33.206Z,0.05
2022-12-15T06:33:02.773Z,0.07
2022-12-15T06:35:36.636Z,0.16
2022-12-15T06:38:06.143Z,0.19
2022-12-15T06:40:38.278Z,0.09
2022-12-15T06:43:10.125Z,0.03
2022-12-15T06:45:39.649Z,0.20
2022-12-15T06:48:09.174Z,0.20
2022-12-15T06:50:40.872Z,0.38
2022-12-15T06:53:10.458Z,0.21
2022-12-15T06:55:40.362Z,0.42
2022-12-15T06:58:13.370Z,0.28
2022-12-15T07:00:46.124Z,0.57
2022-12-15T07:03:19.728Z,0.70
2022-12-15T07:06:11.412Z,0.50
2022-12-15T07:08:42.777Z,0.10
2022-12-15T07:11:13.720Z,0.42
2022-12-15T07:13:43.346Z,0.53
2022-12-15T07:16:13.837Z,0.40
2022-12-15T07:18:44.740Z,0.65
2022-12-15T07:21:14.394Z,0.73
2022-12-15T07:24:00.797Z,0.63
2022-12-15T07:26:30.730Z,0.55
2022-12-15T07:29:00.273Z,0.55
2022-12-15T07:31:32.177Z,0.67
2022-12-15T07:34:02.013Z,0.72
2022-12-15T07:36:31.649Z,0.68
2022-12-15T07:39:02.512Z,0.71
2022-12-15T07:41:32.309Z,1.08
2022-12-15T07:44:02.562Z,1.02
2022-12-15T07:46:32.238Z,0.90
2022-12-15T07:49:01.818Z,1.34
2022-12-15T07:51:31.352Z,1.10
2022-12-15T07:54:00.110Z,1.06
2022-12-15T07:56:33.220Z,1.21
2022-12-15T07:59:07.217Z,1.28
2022-12-15T08:01:36.878Z,1.08
2022-12-15T08:04:07.137Z,0.88
2022-12-15T08:06:36.691Z,1.10
2022-12-15T08:09:06.175Z,1.01
2022-12-15T08:11:35.799Z,0.76
2022-12-15T08:14:09.233Z,0.96
2022-12-15T08:16:43.280Z,0.78
2022-12-15T08:19:15.977Z,1.08
2022-12-15T08:21:47.249Z,1.14
2022-12-15T08:24:17.602Z,1.00
2022-12-15T08:26:50.328Z,1.13
2022-12-15T08:32:10.343Z,1.16
2022-12-15T08:34:40.042Z,1.29
2022-12-15T08:37:09.640Z,1.23
2022-12-15T08:39:39.214Z,1.43
2022-12-15T08:42:08.918Z,1.48
2022-12-15T08:44:38.438Z,1.48
2022-12-15T08:47:08.610Z,1.48
2022-12-15T08:49:38.136Z,1.47
2022-12-15T08:52:07.653Z,1.69
2022-12-15T08:54:37.275Z,1.85
2022-12-15T08:57:06.791Z,1.69
2022-12-15T08:59:36.318Z,1.69
2022-12-15T09:02:06.237Z,1.70
2022-12-15T09:04:36.179Z,1.74
2022-12-15T09:07:05.797Z,1.94
2022-12-15T09:09:35.391Z,2.03
2022-12-15T09:12:04.287Z,1.94
2022-12-15T09:14:34.112Z,1.89
2022-12-15T09:17:04.065Z,1.85
2022-12-15T09:19:35.086Z,2.08
2022-12-15T09:22:05.385Z,2.14
2022-12-15T09:24:35.604Z,1.87
2022-12-15T09:27:06.212Z,2.07
2022-12-15T09:29:36.691Z,2.18
2022-12-15T09:32:10.652Z,2.25
2022-12-15T09:34:43.617Z,2.22
2022-12-15T09:37:13.524Z,2.28
2022-12-15T09:39:43.085Z,1.90
2022-12-15T09:42:29.172Z,2.05
2022-12-15T09:45:20.449Z,2.03
2022-12-15T09:48:07.291Z,2.20
2022-12-15T09:50:40.192Z,2.14
2022-12-15T09:53:45.608Z,2.34
2022-12-15T09:56:50.037Z,2.41
2022-12-15T09:59:38.131Z,2.42
2022-12-15T10:02:40.552Z,2.30
2022-12-15T10:06:16.472Z,2.62
2022-12-15T10:09:15.148Z,2.31
2022-12-15T10:12:07.677Z,2.42
2022-12-15T10:14:50.361Z,2.62
2022-12-15T10:17:40.276Z,2.64
2022-12-15T10:20:29.871Z,2.85
2022-12-15T10:23:14.252Z,2.70
2022-12-15T10:26:19.351Z,2.72
2022-12-15T10:29:26.014Z,2.93
2022-12-15T10:32:07.272Z,2.67
2022-12-15T10:34:39.278Z,2.44
2022-12-15T10:37:20.238Z,2.57
2022-12-15T10:39:51.728Z,2.60
2022-12-15T10:42:26.343Z,2.88
2022-12-15T10:44:59.476Z,3.16
2022-12-15T10:47:32.537Z,3.04
2022-12-15T10:50:25.597Z,2.93
2022-12-15T10:52:55.339Z,3.10
2022-12-15T10:55:37.431Z,3.09
2022-12-15T10:58:23.991Z,2.95
2022-12-15T11:01:26.312Z,3.13
2022-12-15T11:03:57.699Z,3.40
2022-12-15T11:06:33.287Z,3.22
2022-12-15T11:09:39.038Z,3.15
2022-12-15T11:12:42.842Z,3.04
2022-12-15T11:15:24.393Z,3.03
2022-12-15T11:18:21.984Z,3.15
2022-12-15T11:21:07.633Z,3.41
2022-12-15T11:24:21.911Z,3.55
2022-12-15T11:27:25.600Z,3.41
2022-12-15T11:30:20.473Z,3.18
2022-12-15T11:33:00.027Z,3.28
2022-12-15T11:36:09.797Z,3.50
2022-12-15T11:38:56.536Z,3.73
2022-12-15T11:41:59.480Z,3.92
2022-12-15T11:45:01.084Z,3.38
2022-12-15T11:47:55.483Z,3.46
2022-12-15T11:50:54.866Z,3.40
2022-12-15T11:53:54.374Z,3.28
2022-12-15T11:56:45.499Z,3.81
2022-12-15T11:59:58.474Z,3.87
2022-12-15T12:02:50.441Z,3.26
2022-12-15T12:05:57.803Z,3.99
2022-12-15T12:09:04.111Z,3.84
2022-12-15T12:12:02.925Z,4.05
2022-12-15T12:14:50.753Z,3.83
2022-12-15T12:17:52.389Z,3.72
2022-12-15T12:21:24.750Z,3.53
2022-12-15T12:24:11.049Z,3.56
2022-12-15T12:27:26.356Z,3.48
2022-12-15T12:30:13.228Z,3.62
2022-12-15T12:33:04.580Z,3.30
2022-12-15T12:35:47.365Z,3.29
2022-12-15T12:38:29.978Z,3.47
2022-12-15T12:41:26.658Z,3.12
2022-12-15T12:44:02.025Z,3.29
2022-12-15T12:46:41.400Z,3.15
2022-12-15T12:49:31.536Z,3.17
2022-12-15T12:52:04.753Z,3.18
2022-12-15T12:54:37.271Z,3.23
2022-12-15T12:57:12.758Z,3.00
2022-12-15T13:00:41.974Z,3.08
2022-12-15T13:03:21.653Z,3.28
2022-12-15T13:05:52.276Z,2.96
2022-12-15T13:08:55.909Z,2.65
2022-12-15T13:11:53.073Z,2.81
2022-12-15T13:14:48.335Z,2.77
2022-12-15T13:17:44.683Z,2.73
2022-12-15T13:20:32.254Z,2.69
2022-12-15T13:23:23.115Z,2.92
2022-12-15T13:25:59.075Z,3.15
2022-12-15T13:28:40.176Z,3.05
2022-12-15T13:31:21.587Z,2.85
2022-12-15T13:34:00.271Z,2.56
2022-12-15T13:36:41.805Z,2.89
2022-12-15T13:39:17.314Z,2.92
2022-12-15T13:42:31.490Z,2.81
2022-12-15T13:44:57.623Z,2.52
2022-12-15T13:47:30.248Z,2.80
2022-12-15T13:51:00.009Z,2.78
2022-12-15T13:53:42.225Z,2.74
2022-12-15T13:56:12.588Z,2.68
2022-12-15T13:58:50.887Z,2.71
2022-12-15T14:01:33.347Z,2.89
2022-12-15T14:04:16.503Z,2.92
2022-12-15T14:07:01.385Z,2.76
2022-12-15T14:09:41.412Z,2.79
2022-12-15T14:12:14.974Z,2.72
2022-12-15T14:17:38.124Z,2.47
2022-12-15T14:20:26.825Z,2.40
2022-12-15T14:22:56.576Z,2.27
2022-12-15T14:25:30.022Z,2.33
2022-12-15T14:27:59.651Z,2.30
2022-12-15T14:30:33.146Z,2.28
2022-12-15T14:33:16.398Z,2.34
2022-12-15T14:35:52.784Z,2.35
2022-12-15T14:38:38.932Z,2.43
2022-12-15T14:41:22.791Z,2.52
2022-12-15T14:44:37.062Z,2.38
2022-12-15T14:46:51.142Z,2.15
2022-12-15T14:49:31.553Z,2.23
2022-12-15T14:52:06.250Z,1.98
2022-12-15T14:55:11.594Z,1.93
2022-12-15T14:57:48.985Z,2.06
2022-12-15T15:00:36.440Z,1.96
2022-12-15T15:03:05.834Z,2.58
2022-12-15T15:03:39.469Z,1.90
2022-12-15T15:06:12.024Z,1.81
2022-12-15T15:08:52.836Z,1.80
2022-12-15T15:11:37.252Z,1.95
2022-12-15T15:14:32.899Z,1.56
2022-12-15T15:17:57.663Z,2.32
2022-12-15T15:20:36.124Z,1.84
2022-12-15T15:23:10.030Z,1.75
2022-12-15T15:26:05.605Z,1.81
2022-12-15T15:28:43.152Z,2.03
2022-12-15T15:31:38.360Z,1.79
2022-12-15T15:34:11.557Z,1.83
2022-12-15T15:36:41.275Z,1.64
2022-12-15T15:39:15.618Z,1.79
2022-12-15T15:41:45.293Z,1.89
2022-12-15T15:44:16.659Z,1.66
2022-12-15T15:46:51.652Z,1.76
2022-12-15T15:49:24.744Z,1.75
2022-12-15T15:51:56.926Z,1.82
2022-12-15T15:54:34.324Z,1.84
2022-12-15T15:57:02.410Z,1.59
2022-12-15T15:59:32.692Z,1.67
2022-12-15T16:02:03.305Z,1.81
2022-12-15T16:04:32.968Z,1.89
2022-12-15T16:07:04.504Z,2.00
2022-12-15T16:09:35.960Z,1.62
2022-12-15T16:12:06.140Z,1.48
2022-12-15T16:14:35.724Z,1.87
2022-12-15T16:17:19.046Z,1.89
2022-12-15T16:19:49.461Z,1.72
2022-12-15T16:22:22.941Z,1.82
2022-12-15T16:24:54.799Z,1.86
2022-12-15T16:27:23.215Z,1.86
2022-12-15T16:29:53.692Z,1.82
2022-12-15T16:32:24.142Z,1.53
2022-12-15T16:34:53.713Z,1.71
2022-12-15T16:37:30.665Z,1.82
2022-12-15T16:40:03.464Z,1.67
2022-12-15T16:42:33.093Z,1.58
2022-12-15T16:45:01.321Z,1.59
2022-12-15T16:47:30.924Z,1.76
2022-12-15T16:50:01.411Z,1.62
2022-12-15T16:52:31.007Z,1.75
2022-12-15T16:54:58.904Z,1.77
2022-12-15T16:57:29.635Z,1.44
2022-12-15T16:59:59.214Z,1.61
2022-12-15T17:02:31.287Z,1.63
2022-12-15T17:05:01.071Z,1.62
2022-12-15T17:07:31.606Z,1.68
2022-12-15T17:10:02.282Z,1.61
2022-12-15T17:12:33.356Z,1.71
2022-12-15T17:15:02.636Z,1.93
2022-12-15T17:17:32.379Z,1.66
2022-12-15T17:23:14.469Z,1.59
2022-12-15T17:26:21.127Z,1.88
2022-12-15T17:28:41.931Z,1.70
2022-12-15T17:31:23.571Z,1.59
2022-12-15T17:33:54.045Z,1.48
2022-12-15T17:36:29.250Z,1.79
2022-12-15T17:39:01.633Z,1.65
2022-12-15T17:44:39.265Z,1.89
2022-12-15T17:47:09.449Z,1.91
2022-12-15T17:49:39.463Z,1.71
2022-12-15T17:52:26.314Z,1.68
2022-12-15T17:54:57.025Z,1.74
2022-12-15T17:57:26.716Z,1.50
2022-12-15T17:59:56.383Z,1.68
2022-12-15T18:02:26.156Z,1.81
2022-12-15T18:04:55.908Z,1.57
2022-12-15T18:07:25.645Z,1.97
2022-12-15T18:09:55.297Z,1.86
2022-12-15T18:12:27.673Z,1.80
2022-12-15T18:14:57.382Z,1.81
2022-12-15T18:17:26.883Z,1.92
2022-12-15T18:19:56.597Z,2.16
2022-12-15T18:22:26.156Z,1.77
2022-12-15T18:24:55.670Z,1.82
2022-12-15T18:27:29.525Z,1.69
2022-12-15T18:29:59.015Z,2.14
2022-12-15T18:32:30.000Z,1.69
2022-12-15T18:34:59.620Z,1.75
2022-12-15T18:37:30.000Z,1.83
2022-12-15T18:40:04.451Z,1.93
2022-12-15T18:42:34.908Z,1.66
2022-12-15T18:45:06.412Z,1.89
2022-12-15T18:47:35.952Z,1.84
2022-12-15T18:50:08.905Z,1.91
2022-12-15T18:52:39.503Z,1.65
2022-12-15T18:55:21.699Z,1.76
2022-12-15T18:57:53.052Z,1.69
2022-12-15T19:00:31.547Z,1.77
2022-12-15T19:03:01.418Z,1.77
2022-12-15T19:05:33.672Z,1.73
2022-12-15T19:08:10.358Z,1.74
2022-12-15T19:11:18.433Z,1.71
2022-12-15T19:13:47.926Z,1.78
2022-12-15T19:16:23.669Z,1.83
2022-12-15T19:19:17.096Z,2.01
2022-12-15T19:22:05.530Z,1.96
2022-12-15T19:24:53.084Z,1.86
2022-12-15T19:27:28.900Z,1.91
2022-12-15T19:29:58.741Z,1.89
2022-12-15T19:32:27.594Z,1.55
2022-12-15T19:34:57.054Z,1.92
2022-12-15T19:37:30.962Z,2.03
2022-12-15T19:40:01.507Z,1.90
2022-12-15T19:42:37.275Z,2.04
2022-12-15T19:45:21.634Z,1.91
2022-12-15T19:47:50.471Z,2.02
2022-12-15T19:50:36.404Z,1.90
2022-12-15T19:53:26.416Z,1.66
2022-12-15T19:56:01.536Z,1.91
2022-12-15T19:58:36.469Z,1.70
2022-12-15T20:01:12.521Z,1.99
2022-12-15T20:03:49.610Z,1.63
2022-12-15T20:06:26.521Z,1.74
2022-12-15T20:08:57.135Z,1.55
2022-12-15T20:11:32.444Z,1.80
2022-12-15T20:14:02.106Z,1.72
2022-12-15T20:16:31.575Z,1.52
2022-12-15T20:19:01.170Z,1.75
2022-12-15T20:21:37.302Z,1.59
2022-12-15T20:24:17.758Z,1.61
2022-12-15T20:26:47.964Z,1.60
2022-12-15T20:29:32.038Z,1.80
2022-12-15T20:32:01.754Z,1.86
2022-12-15T20:34:31.284Z,1.98
2022-12-15T20:36:59.992Z,1.65
2022-12-15T20:39:30.807Z,1.88
2022-12-15T20:42:00.272Z,1.75
2022-12-15T20:44:28.980Z,1.64
2022-12-15T20:46:58.487Z,1.58
2022-12-15T20:49:28.392Z,1.65
2022-12-15T20:51:57.040Z,1.63
2022-12-15T20:54:26.520Z,1.51
2022-12-15T20:56:56.040Z,1.59
2022-12-15T20:59:25.781Z,1.44
2022-12-15T21:01:55.459Z,1.51
2022-12-15T21:04:29.777Z,1.40
2022-12-15T21:06:59.304Z,1.51
2022-12-15T21:09:28.869Z,1.39
2022-12-15T21:11:58.647Z,1.41
2022-12-15T21:14:28.220Z,1.22
2022-12-15T21:16:58.277Z,1.26
2022-12-15T21:19:28.218Z,1.30
2022-12-15T21:21:57.096Z,1.39
2022-12-15T21:24:28.994Z,1.35
2022-12-15T21:26:58.573Z,1.20
2022-12-15T21:29:36.132Z,1.27
2022-12-15T21:32:05.908Z,1.24
2022-12-15T21:34:36.145Z,1.20
2022-12-15T21:37:29.743Z,1.22
2022-12-15T21:40:00.179Z,1.06
2022-12-15T21:42:29.740Z,1.19
2022-12-15T21:44:59.203Z,1.24
2022-12-15T21:47:52.035Z,1.13
2022-12-15T21:50:21.782Z,1.26
2022-12-15T21:52:51.542Z,1.14
2022-12-15T21:55:28.873Z,1.29
2022-12-15T21:57:58.917Z,1.14
2022-12-15T22:00:28.619Z,1.19
2022-12-15T22:02:58.254Z,1.08
2022-12-15T22:05:32.657Z,1.23
2022-12-15T22:08:17.040Z,1.08
2022-12-15T22:10:52.046Z,1.29
2022-12-15T22:13:23.821Z,1.35
2022-12-15T22:15:53.416Z,1.21
2022-12-15T22:18:24.536Z,1.23
2022-12-15T22:20:54.065Z,1.33
2022-12-15T22:23:23.589Z,1.22
2022-12-15T22:25:56.799Z,1.42
2022-12-15T22:28:29.194Z,1.34
2022-12-15T22:31:03.229Z,1.18
2022-12-15T22:33:32.050Z,1.28
2022-12-15T22:36:01.683Z,1.33
2022-12-15T22:38:31.574Z,1.35
2022-12-15T22:41:01.030Z,1.39
2022-12-15T22:43:42.240Z,1.34
2022-12-15T22:46:14.557Z,1.42
2022-12-15T22:48:47.544Z,1.49
2022-12-15T22:51:19.702Z,1.41
2022-12-15T22:53:49.295Z,1.36
2022-12-15T22:56:37.468Z,1.49
2022-12-15T22:59:13.561Z,1.51
2022-12-15T23:01:43.131Z,1.56
2022-12-15T23:04:13.080Z,1.35
2022-12-15T23:06:42.780Z,1.40
2022-12-15T23:09:12.362Z,1.49
2022-12-15T23:11:42.048Z,1.46
2022-12-15T23:14:18.016Z,1.59
2022-12-15T23:16:47.659Z,1.57
2022-12-15T23:19:25.933Z,1.58
2022-12-15T23:21:55.398Z,1.61
2022-12-15T23:24:24.956Z,1.48
2022-12-15T23:26:53.599Z,1.49
2022-12-15T23:29:23.137Z,1.47
2022-12-15T23:31:52.725Z,1.68
2022-12-15T23:34:22.213Z,1.70
2022-12-15T23:36:51.730Z,1.71
2022-12-15T23:39:21.422Z,1.67
2022-12-15T23:41:50.931Z,1.70
2022-12-15T23:44:20.392Z,1.66
2022-12-15T23:46:49.149Z,1.77
2022-12-15T23:49:18.632Z,1.52
2022-12-15T23:51:49.034Z,1.59
2022-12-15T23:54:18.520Z,1.69
2022-12-15T23:56:48.011Z,1.65
2022-12-15T23:59:17.664Z,1.56
